sensor_id;sensor_type;location;lat;lon;timestamp;temperature;humidity
19880;DHT22;10102;50.828;4.416;2022-08-21T00:04:27;19.30;99.90
19880;DHT22;10102;50.828;4.416;2022-08-21T00:06:53;19.20;99.90
19880;DHT22;10102;50.828;4.416;2022-08-21T00:09:19;19.30;99.90
19880;DHT22;10102;50.828;4.416;2022-08-21T00:11:45;19.10;99.90
19880;DHT22;10102;50.828;4.416;2022-08-21T00:14:12;19.10;99.90
19880;DHT22;10102;50.828;4.416;2022-08-21T00:19:05;18.90;99.90
19880;DHT22;10102;50.828;4.416;2022-08-21T00:21:32;19.00;99.90
19880;DHT22;10102;50.828;4.416;2022-08-21T00:23:58;18.70;99.90
19880;DHT22;10102;50.828;4.416;2022-08-21T00:26:24;18.90;99.90
19880;DHT22;10102;50.828;4.416;2022-08-21T00:28:49;18.70;99.90
19880;DHT22;10102;50.828;4.416;2022-08-21T00:31:16;18.80;99.90
19880;DHT22;10102;50.828;4.416;2022-08-21T00:33:44;18.60;99.90
19880;DHT22;10102;50.828;4.416;2022-08-21T00:38:36;18.80;99.90
19880;DHT22;10102;50.828;4.416;2022-08-21T00:41:04;18.60;99.90
19880;DHT22;10102;50.828;4.416;2022-08-21T00:43:33;18.70;99.90
19880;DHT22;10102;50.828;4.416;2022-08-21T00:45:59;18.60;99.90
19880;DHT22;10102;50.828;4.416;2022-08-21T00:48:25;18.50;99.90
19880;DHT22;10102;50.828;4.416;2022-08-21T00:51:25;18.60;99.90
19880;DHT22;10102;50.828;4.416;2022-08-21T00:53:55;18.50;99.90
19880;DHT22;10102;50.828;4.416;2022-08-21T00:56:23;18.60;99.90
19880;DHT22;10102;50.828;4.416;2022-08-21T00:58:50;18.50;99.90
19880;DHT22;10102;50.828;4.416;2022-08-21T01:01:17;18.40;99.90
19880;DHT22;10102;50.828;4.416;2022-08-21T01:06:09;18.30;99.90
19880;DHT22;10102;50.828;4.416;2022-08-21T01:08:35;18.50;99.90
19880;DHT22;10102;50.828;4.416;2022-08-21T01:11:02;18.60;99.90
19880;DHT22;10102;50.828;4.416;2022-08-21T01:13:31;18.40;99.90
19880;DHT22;10102;50.828;4.416;2022-08-21T01:15:59;18.60;99.90
19880;DHT22;10102;50.828;4.416;2022-08-21T01:18:27;18.60;99.90
19880;DHT22;10102;50.828;4.416;2022-08-21T01:21:09;18.60;99.90
19880;DHT22;10102;50.828;4.416;2022-08-21T01:23:36;18.40;99.90
19880;DHT22;10102;50.828;4.416;2022-08-21T01:26:03;18.60;99.90
19880;DHT22;10102;50.828;4.416;2022-08-21T01:28:34;18.60;99.90
19880;DHT22;10102;50.828;4.416;2022-08-21T01:31:05;18.60;99.90
19880;DHT22;10102;50.828;4.416;2022-08-21T01:33:31;16.30;99.90
19880;DHT22;10102;50.828;4.416;2022-08-21T01:35:57;18.40;99.90
19880;DHT22;10102;50.828;4.416;2022-08-21T01:38:22;18.20;99.90
19880;DHT22;10102;50.828;4.416;2022-08-21T01:40:48;18.40;99.90
19880;DHT22;10102;50.828;4.416;2022-08-21T01:43:14;18.30;99.90
19880;DHT22;10102;50.828;4.416;2022-08-21T01:45:40;18.10;99.90
19880;DHT22;10102;50.828;4.416;2022-08-21T01:48:05;18.10;99.90
19880;DHT22;10102;50.828;4.416;2022-08-21T01:50:31;18.30;99.90
19880;DHT22;10102;50.828;4.416;2022-08-21T01:52:57;18.10;99.90
19880;DHT22;10102;50.828;4.416;2022-08-21T01:55:23;18.10;99.90
19880;DHT22;10102;50.828;4.416;2022-08-21T01:57:49;18.10;99.90
19880;DHT22;10102;50.828;4.416;2022-08-21T02:00:19;18.00;99.90
19880;DHT22;10102;50.828;4.416;2022-08-21T02:02:45;18.10;99.90
19880;DHT22;10102;50.828;4.416;2022-08-21T02:05:12;18.10;99.90
19880;DHT22;10102;50.828;4.416;2022-08-21T02:07:46;18.10;99.90
19880;DHT22;10102;50.828;4.416;2022-08-21T02:10:14;18.10;99.90
19880;DHT22;10102;50.828;4.416;2022-08-21T02:12:40;17.90;99.90
19880;DHT22;10102;50.828;4.416;2022-08-21T02:15:08;18.00;99.90
19880;DHT22;10102;50.828;4.416;2022-08-21T02:17:47;18.10;99.90
19880;DHT22;10102;50.828;4.416;2022-08-21T02:20:18;18.10;99.90
19880;DHT22;10102;50.828;4.416;2022-08-21T02:22:44;18.00;99.90
19880;DHT22;10102;50.828;4.416;2022-08-21T02:25:10;18.00;99.90
19880;DHT22;10102;50.828;4.416;2022-08-21T02:27:40;18.00;99.90
19880;DHT22;10102;50.828;4.416;2022-08-21T02:30:09;18.30;99.90
19880;DHT22;10102;50.828;4.416;2022-08-21T02:32:35;18.00;99.90
19880;DHT22;10102;50.828;4.416;2022-08-21T02:35:01;18.00;99.90
19880;DHT22;10102;50.828;4.416;2022-08-21T02:37:27;17.80;99.90
19880;DHT22;10102;50.828;4.416;2022-08-21T02:39:52;17.90;99.90
19880;DHT22;10102;50.828;4.416;2022-08-21T02:42:18;17.60;99.90
19880;DHT22;10102;50.828;4.416;2022-08-21T02:44:44;17.60;99.90
19880;DHT22;10102;50.828;4.416;2022-08-21T02:47:09;17.70;99.90
19880;DHT22;10102;50.828;4.416;2022-08-21T02:52:01;17.50;99.90
19880;DHT22;10102;50.828;4.416;2022-08-21T02:54:27;17.60;99.90
19880;DHT22;10102;50.828;4.416;2022-08-21T02:56:52;17.60;99.90
19880;DHT22;10102;50.828;4.416;2022-08-21T02:59:18;17.40;99.90
19880;DHT22;10102;50.828;4.416;2022-08-21T03:01:44;17.30;99.90
19880;DHT22;10102;50.828;4.416;2022-08-21T03:04:10;17.40;99.90
19880;DHT22;10102;50.828;4.416;2022-08-21T03:06:36;17.30;99.90
19880;DHT22;10102;50.828;4.416;2022-08-21T03:09:02;17.00;99.90
19880;DHT22;10102;50.828;4.416;2022-08-21T03:11:27;17.30;99.90
19880;DHT22;10102;50.828;4.416;2022-08-21T03:13:53;17.30;99.90
19880;DHT22;10102;50.828;4.416;2022-08-21T03:16:19;17.30;99.90
19880;DHT22;10102;50.828;4.416;2022-08-21T03:18:46;17.20;99.90
19880;DHT22;10102;50.828;4.416;2022-08-21T03:21:11;17.20;99.90
19880;DHT22;10102;50.828;4.416;2022-08-21T03:23:38;17.40;99.90
19880;DHT22;10102;50.828;4.416;2022-08-21T03:26:05;17.40;99.90
19880;DHT22;10102;50.828;4.416;2022-08-21T03:28:31;17.30;99.90
19880;DHT22;10102;50.828;4.416;2022-08-21T03:30:58;16.90;99.90
19880;DHT22;10102;50.828;4.416;2022-08-21T03:33:23;17.00;99.90
19880;DHT22;10102;50.828;4.416;2022-08-21T03:35:59;16.80;99.90
19880;DHT22;10102;50.828;4.416;2022-08-21T03:38:27;17.10;99.90
19880;DHT22;10102;50.828;4.416;2022-08-21T03:40:53;17.00;99.90
19880;DHT22;10102;50.828;4.416;2022-08-21T03:43:19;17.10;99.90
19880;DHT22;10102;50.828;4.416;2022-08-21T03:45:45;17.20;99.90
19880;DHT22;10102;50.828;4.416;2022-08-21T03:48:10;17.40;99.90
19880;DHT22;10102;50.828;4.416;2022-08-21T03:50:39;17.20;99.90
19880;DHT22;10102;50.828;4.416;2022-08-21T03:53:06;17.10;99.90
19880;DHT22;10102;50.828;4.416;2022-08-21T03:55:32;16.90;99.90
19880;DHT22;10102;50.828;4.416;2022-08-21T03:57:58;17.20;99.90
19880;DHT22;10102;50.828;4.416;2022-08-21T04:00:24;17.00;99.90
19880;DHT22;10102;50.828;4.416;2022-08-21T04:02:49;16.90;99.90
19880;DHT22;10102;50.828;4.416;2022-08-21T04:05:16;17.10;99.90
19880;DHT22;10102;50.828;4.416;2022-08-21T04:07:57;17.00;99.90
19880;DHT22;10102;50.828;4.416;2022-08-21T04:10:24;17.10;99.90
19880;DHT22;10102;50.828;4.416;2022-08-21T04:12:52;17.00;99.90
19880;DHT22;10102;50.828;4.416;2022-08-21T04:15:19;17.00;99.90
19880;DHT22;10102;50.828;4.416;2022-08-21T04:17:45;17.00;99.90
19880;DHT22;10102;50.828;4.416;2022-08-21T04:20:11;16.90;99.90
19880;DHT22;10102;50.828;4.416;2022-08-21T04:22:38;16.80;99.90
19880;DHT22;10102;50.828;4.416;2022-08-21T04:25:04;16.80;99.90
19880;DHT22;10102;50.828;4.416;2022-08-21T04:29:56;16.80;99.90
19880;DHT22;10102;50.828;4.416;2022-08-21T04:32:25;16.80;99.90
19880;DHT22;10102;50.828;4.416;2022-08-21T04:35:04;16.80;99.90
19880;DHT22;10102;50.828;4.416;2022-08-21T04:37:30;16.50;99.90
19880;DHT22;10102;50.828;4.416;2022-08-21T04:39:56;16.60;99.90
19880;DHT22;10102;50.828;4.416;2022-08-21T04:42:24;16.60;99.90
19880;DHT22;10102;50.828;4.416;2022-08-21T04:44:50;16.70;99.90
19880;DHT22;10102;50.828;4.416;2022-08-21T04:47:16;16.70;99.90
19880;DHT22;10102;50.828;4.416;2022-08-21T04:49:42;16.70;99.90
19880;DHT22;10102;50.828;4.416;2022-08-21T04:52:09;16.70;99.90
19880;DHT22;10102;50.828;4.416;2022-08-21T04:54:35;16.70;99.90
19880;DHT22;10102;50.828;4.416;2022-08-21T04:57:05;16.70;99.90
19880;DHT22;10102;50.828;4.416;2022-08-21T04:59:40;16.60;99.90
19880;DHT22;10102;50.828;4.416;2022-08-21T05:02:08;16.60;99.90
19880;DHT22;10102;50.828;4.416;2022-08-21T05:04:39;16.80;99.90
19880;DHT22;10102;50.828;4.416;2022-08-21T05:07:12;16.80;99.90
19880;DHT22;10102;50.828;4.416;2022-08-21T05:09:39;16.80;99.90
19880;DHT22;10102;50.828;4.416;2022-08-21T05:12:04;16.70;99.90
19880;DHT22;10102;50.828;4.416;2022-08-21T05:16:56;16.50;99.90
19880;DHT22;10102;50.828;4.416;2022-08-21T05:19:22;16.80;99.90
19880;DHT22;10102;50.828;4.416;2022-08-21T05:21:48;16.80;99.90
19880;DHT22;10102;50.828;4.416;2022-08-21T05:24:15;16.70;99.90
19880;DHT22;10102;50.828;4.416;2022-08-21T05:26:41;16.80;99.90
19880;DHT22;10102;50.828;4.416;2022-08-21T05:29:07;16.60;99.90
19880;DHT22;10102;50.828;4.416;2022-08-21T05:31:33;16.60;99.90
19880;DHT22;10102;50.828;4.416;2022-08-21T05:33:59;17.00;99.90
19880;DHT22;10102;50.828;4.416;2022-08-21T05:36:25;17.00;99.90
19880;DHT22;10102;50.828;4.416;2022-08-21T05:38:51;17.10;99.90
19880;DHT22;10102;50.828;4.416;2022-08-21T05:41:17;17.20;99.90
19880;DHT22;10102;50.828;4.416;2022-08-21T05:48:35;17.10;99.90
19880;DHT22;10102;50.828;4.416;2022-08-21T05:51:10;17.10;99.90
19880;DHT22;10102;50.828;4.416;2022-08-21T05:53:37;17.20;99.90
19880;DHT22;10102;50.828;4.416;2022-08-21T05:56:03;17.40;99.90
19880;DHT22;10102;50.828;4.416;2022-08-21T05:58:30;17.20;99.90
19880;DHT22;10102;50.828;4.416;2022-08-21T06:00:56;17.00;99.90
19880;DHT22;10102;50.828;4.416;2022-08-21T06:03:32;17.00;99.90
19880;DHT22;10102;50.828;4.416;2022-08-21T06:05:58;17.30;99.90
19880;DHT22;10102;50.828;4.416;2022-08-21T06:08:25;17.60;99.90
19880;DHT22;10102;50.828;4.416;2022-08-21T06:10:52;17.20;99.90
19880;DHT22;10102;50.828;4.416;2022-08-21T06:13:19;17.40;99.90
19880;DHT22;10102;50.828;4.416;2022-08-21T06:15:46;17.20;99.90
19880;DHT22;10102;50.828;4.416;2022-08-21T06:18:12;17.60;99.90
19880;DHT22;10102;50.828;4.416;2022-08-21T06:20:38;17.50;99.90
19880;DHT22;10102;50.828;4.416;2022-08-21T06:23:04;17.50;99.90
19880;DHT22;10102;50.828;4.416;2022-08-21T06:25:32;17.50;99.90
19880;DHT22;10102;50.828;4.416;2022-08-21T06:30:27;18.00;99.90
19880;DHT22;10102;50.828;4.416;2022-08-21T06:32:53;17.70;99.90
19880;DHT22;10102;50.828;4.416;2022-08-21T06:35:19;17.80;99.90
19880;DHT22;10102;50.828;4.416;2022-08-21T06:37:45;17.90;99.90
19880;DHT22;10102;50.828;4.416;2022-08-21T06:40:11;18.10;99.90
19880;DHT22;10102;50.828;4.416;2022-08-21T06:42:37;17.90;99.90
19880;DHT22;10102;50.828;4.416;2022-08-21T06:45:04;17.80;99.90
19880;DHT22;10102;50.828;4.416;2022-08-21T06:47:29;18.00;99.90
19880;DHT22;10102;50.828;4.416;2022-08-21T06:49:55;18.10;99.90
19880;DHT22;10102;50.828;4.416;2022-08-21T06:52:21;18.20;99.90
19880;DHT22;10102;50.828;4.416;2022-08-21T06:54:47;18.30;99.90
19880;DHT22;10102;50.828;4.416;2022-08-21T06:57:13;18.40;99.90
19880;DHT22;10102;50.828;4.416;2022-08-21T06:59:39;18.20;99.90
19880;DHT22;10102;50.828;4.416;2022-08-21T07:02:04;18.60;99.90
19880;DHT22;10102;50.828;4.416;2022-08-21T07:04:30;18.40;99.90
19880;DHT22;10102;50.828;4.416;2022-08-21T07:06:56;18.70;99.90
19880;DHT22;10102;50.828;4.416;2022-08-21T07:11:52;19.00;99.90
19880;DHT22;10102;50.828;4.416;2022-08-21T07:14:18;19.00;99.90
19880;DHT22;10102;50.828;4.416;2022-08-21T07:16:44;19.10;99.90
19880;DHT22;10102;50.828;4.416;2022-08-21T07:19:09;19.10;99.90
19880;DHT22;10102;50.828;4.416;2022-08-21T07:21:35;19.20;99.90
19880;DHT22;10102;50.828;4.416;2022-08-21T07:26:26;19.30;99.90
19880;DHT22;10102;50.828;4.416;2022-08-21T07:28:53;19.50;99.90
19880;DHT22;10102;50.828;4.416;2022-08-21T07:31:22;19.50;99.90
19880;DHT22;10102;50.828;4.416;2022-08-21T07:36:15;19.50;99.90
19880;DHT22;10102;50.828;4.416;2022-08-21T07:38:41;19.50;99.90
19880;DHT22;10102;50.828;4.416;2022-08-21T07:41:14;19.50;99.90
19880;DHT22;10102;50.828;4.416;2022-08-21T07:43:40;19.60;99.90
19880;DHT22;10102;50.828;4.416;2022-08-21T07:46:06;19.90;99.90
19880;DHT22;10102;50.828;4.416;2022-08-21T07:48:32;20.00;99.90
19880;DHT22;10102;50.828;4.416;2022-08-21T07:50:59;19.80;99.90
19880;DHT22;10102;50.828;4.416;2022-08-21T07:53:27;20.00;99.90
19880;DHT22;10102;50.828;4.416;2022-08-21T07:55:57;20.10;99.90
19880;DHT22;10102;50.828;4.416;2022-08-21T07:58:23;20.20;99.90
19880;DHT22;10102;50.828;4.416;2022-08-21T08:00:49;20.30;99.90
19880;DHT22;10102;50.828;4.416;2022-08-21T08:03:15;20.60;99.90
19880;DHT22;10102;50.828;4.416;2022-08-21T08:05:40;20.30;99.90
19880;DHT22;10102;50.828;4.416;2022-08-21T08:08:06;20.60;99.90
19880;DHT22;10102;50.828;4.416;2022-08-21T08:10:32;20.70;99.90
19880;DHT22;10102;50.828;4.416;2022-08-21T08:12:58;20.70;99.90
19880;DHT22;10102;50.828;4.416;2022-08-21T08:15:25;20.90;99.90
19880;DHT22;10102;50.828;4.416;2022-08-21T08:17:52;21.00;99.90
19880;DHT22;10102;50.828;4.416;2022-08-21T08:20:18;20.90;99.90
19880;DHT22;10102;50.828;4.416;2022-08-21T08:22:45;20.80;99.90
19880;DHT22;10102;50.828;4.416;2022-08-21T08:25:13;20.90;99.90
19880;DHT22;10102;50.828;4.416;2022-08-21T08:27:39;20.70;99.90
19880;DHT22;10102;50.828;4.416;2022-08-21T08:30:07;20.60;99.90
19880;DHT22;10102;50.828;4.416;2022-08-21T08:32:34;20.80;99.90
19880;DHT22;10102;50.828;4.416;2022-08-21T08:35:00;20.90;99.90
19880;DHT22;10102;50.828;4.416;2022-08-21T08:37:25;20.80;99.90
19880;DHT22;10102;50.828;4.416;2022-08-21T08:39:51;20.80;99.90
19880;DHT22;10102;50.828;4.416;2022-08-21T08:42:31;20.50;99.90
19880;DHT22;10102;50.828;4.416;2022-08-21T08:45:07;20.60;99.90
19880;DHT22;10102;50.828;4.416;2022-08-21T08:47:38;21.00;99.90
19880;DHT22;10102;50.828;4.416;2022-08-21T08:50:27;21.00;99.90
19880;DHT22;10102;50.828;4.416;2022-08-21T08:53:01;21.00;99.90
19880;DHT22;10102;50.828;4.416;2022-08-21T08:55:42;21.40;99.90
19880;DHT22;10102;50.828;4.416;2022-08-21T08:58:16;21.60;99.90
19880;DHT22;10102;50.828;4.416;2022-08-21T09:00:47;21.60;99.90
19880;DHT22;10102;50.828;4.416;2022-08-21T09:03:15;21.70;99.90
19880;DHT22;10102;50.828;4.416;2022-08-21T09:05:43;21.50;99.90
19880;DHT22;10102;50.828;4.416;2022-08-21T09:08:44;21.70;99.90
19880;DHT22;10102;50.828;4.416;2022-08-21T09:11:32;21.70;99.90
19880;DHT22;10102;50.828;4.416;2022-08-21T09:15:11;21.80;99.90
19880;DHT22;10102;50.828;4.416;2022-08-21T09:22:30;21.90;99.90
19880;DHT22;10102;50.828;4.416;2022-08-21T09:25:15;22.00;99.90
19880;DHT22;10102;50.828;4.416;2022-08-21T09:27:44;22.40;99.90
19880;DHT22;10102;50.828;4.416;2022-08-21T09:30:10;22.50;99.90
19880;DHT22;10102;50.828;4.416;2022-08-21T09:32:38;22.50;99.90
19880;DHT22;10102;50.828;4.416;2022-08-21T09:35:11;22.80;99.90
19880;DHT22;10102;50.828;4.416;2022-08-21T09:37:57;22.80;99.90
19880;DHT22;10102;50.828;4.416;2022-08-21T09:40:29;23.00;99.90
19880;DHT22;10102;50.828;4.416;2022-08-21T09:45:39;23.20;99.90
19880;DHT22;10102;50.828;4.416;2022-08-21T09:48:25;23.70;99.90
19880;DHT22;10102;50.828;4.416;2022-08-21T09:50:52;24.00;99.90
19880;DHT22;10102;50.828;4.416;2022-08-21T09:53:25;23.70;99.90
19880;DHT22;10102;50.828;4.416;2022-08-21T09:55:59;23.90;99.90
19880;DHT22;10102;50.828;4.416;2022-08-21T09:58:46;23.90;99.90
19880;DHT22;10102;50.828;4.416;2022-08-21T10:01:21;24.20;99.90
19880;DHT22;10102;50.828;4.416;2022-08-21T10:03:48;24.50;99.90
19880;DHT22;10102;50.828;4.416;2022-08-21T10:06:26;24.30;99.90
19880;DHT22;10102;50.828;4.416;2022-08-21T10:09:11;24.10;99.90
19880;DHT22;10102;50.828;4.416;2022-08-21T10:11:39;24.10;99.90
19880;DHT22;10102;50.828;4.416;2022-08-21T10:17:04;24.10;99.90
19880;DHT22;10102;50.828;4.416;2022-08-21T10:20:04;24.00;99.90
19880;DHT22;10102;50.828;4.416;2022-08-21T10:25:43;24.60;99.90
19880;DHT22;10102;50.828;4.416;2022-08-21T10:31:43;25.00;99.90
19880;DHT22;10102;50.828;4.416;2022-08-21T10:34:26;25.40;99.90
19880;DHT22;10102;50.828;4.416;2022-08-21T10:39:34;26.00;99.90
19880;DHT22;10102;50.828;4.416;2022-08-21T10:42:33;26.10;99.90
19880;DHT22;10102;50.828;4.416;2022-08-21T10:48:09;25.90;99.90
19880;DHT22;10102;50.828;4.416;2022-08-21T10:50:47;25.80;99.90
19880;DHT22;10102;50.828;4.416;2022-08-21T10:55:59;26.30;99.90
19880;DHT22;10102;50.828;4.416;2022-08-21T10:59:31;26.60;99.90
19880;DHT22;10102;50.828;4.416;2022-08-21T11:04:32;27.60;99.90
19880;DHT22;10102;50.828;4.416;2022-08-21T11:07:03;27.50;99.90
19880;DHT22;10102;50.828;4.416;2022-08-21T11:09:31;27.30;99.90
19880;DHT22;10102;50.828;4.416;2022-08-21T11:14:56;27.50;99.90
19880;DHT22;10102;50.828;4.416;2022-08-21T11:17:44;27.60;99.90
19880;DHT22;10102;50.828;4.416;2022-08-21T11:20:20;27.80;99.90
19880;DHT22;10102;50.828;4.416;2022-08-21T11:26:00;28.80;99.90
19880;DHT22;10102;50.828;4.416;2022-08-21T11:28:13;27.80;99.90
19880;DHT22;10102;50.828;4.416;2022-08-21T11:39:17;28.00;99.90
19880;DHT22;10102;50.828;4.416;2022-08-21T11:44:49;27.40;99.90
19880;DHT22;10102;50.828;4.416;2022-08-21T11:55:36;31.50;99.90
19880;DHT22;10102;50.828;4.416;2022-08-21T11:58:23;34.20;93.40
19880;DHT22;10102;50.828;4.416;2022-08-21T12:01:03;33.90;91.50
19880;DHT22;10102;50.828;4.416;2022-08-21T12:03:39;34.00;91.60
19880;DHT22;10102;50.828;4.416;2022-08-21T12:06:09;35.90;89.20
19880;DHT22;10102;50.828;4.416;2022-08-21T12:08:40;38.30;81.90
19880;DHT22;10102;50.828;4.416;2022-08-21T12:16:36;42.70;63.10
19880;DHT22;10102;50.828;4.416;2022-08-21T12:19:08;44.90;57.70
19880;DHT22;10102;50.828;4.416;2022-08-21T12:21:47;45.50;56.20
19880;DHT22;10102;50.828;4.416;2022-08-21T12:26:54;45.50;55.00
19880;DHT22;10102;50.828;4.416;2022-08-21T12:29:32;43.80;56.60
19880;DHT22;10102;50.828;4.416;2022-08-21T12:32:26;43.30;55.20
19880;DHT22;10102;50.828;4.416;2022-08-21T12:35:27;42.90;56.40
19880;DHT22;10102;50.828;4.416;2022-08-21T12:41:16;40.50;57.60
19880;DHT22;10102;50.828;4.416;2022-08-21T12:44:10;37.10;63.40
19880;DHT22;10102;50.828;4.416;2022-08-21T12:46:45;35.40;67.40
19880;DHT22;10102;50.828;4.416;2022-08-21T12:49:27;34.60;68.90
19880;DHT22;10102;50.828;4.416;2022-08-21T12:52:16;33.50;71.30
19880;DHT22;10102;50.828;4.416;2022-08-21T12:54:45;32.10;73.00
19880;DHT22;10102;50.828;4.416;2022-08-21T12:57:20;31.00;76.50
19880;DHT22;10102;50.828;4.416;2022-08-21T12:59:52;30.80;77.80
19880;DHT22;10102;50.828;4.416;2022-08-21T13:02:22;30.90;77.80
19880;DHT22;10102;50.828;4.416;2022-08-21T13:04:49;32.40;76.60
19880;DHT22;10102;50.828;4.416;2022-08-21T13:07:22;34.30;71.80
19880;DHT22;10102;50.828;4.416;2022-08-21T13:09:53;35.10;69.20
19880;DHT22;10102;50.828;4.416;2022-08-21T13:12:21;34.80;69.00
19880;DHT22;10102;50.828;4.416;2022-08-21T13:14:49;34.70;68.20
19880;DHT22;10102;50.828;4.416;2022-08-21T13:17:21;34.80;69.80
19880;DHT22;10102;50.828;4.416;2022-08-21T13:20:00;34.40;69.40
19880;DHT22;10102;50.828;4.416;2022-08-21T13:22:27;33.40;69.40
19880;DHT22;10102;50.828;4.416;2022-08-21T13:24:54;32.10;72.60
19880;DHT22;10102;50.828;4.416;2022-08-21T13:27:28;31.20;74.70
19880;DHT22;10102;50.828;4.416;2022-08-21T13:30:19;30.50;78.40
19880;DHT22;10102;50.828;4.416;2022-08-21T13:32:48;30.20;80.10
19880;DHT22;10102;50.828;4.416;2022-08-21T13:35:47;29.60;80.00
19880;DHT22;10102;50.828;4.416;2022-08-21T13:38:14;29.30;81.60
19880;DHT22;10102;50.828;4.416;2022-08-21T13:40:53;29.10;83.50
19880;DHT22;10102;50.828;4.416;2022-08-21T13:43:27;29.20;84.10
19880;DHT22;10102;50.828;4.416;2022-08-21T13:45:55;29.10;83.30
19880;DHT22;10102;50.828;4.416;2022-08-21T13:48:30;28.60;83.70
19880;DHT22;10102;50.828;4.416;2022-08-21T13:50:57;28.90;85.20
19880;DHT22;10102;50.828;4.416;2022-08-21T13:55:57;29.40;83.90
19880;DHT22;10102;50.828;4.416;2022-08-21T13:58:31;29.20;84.70
19880;DHT22;10102;50.828;4.416;2022-08-21T14:01:00;29.10;86.30
19880;DHT22;10102;50.828;4.416;2022-08-21T14:03:38;28.90;85.40
19880;DHT22;10102;50.828;4.416;2022-08-21T14:06:20;28.70;96.60
19880;DHT22;10102;50.828;4.416;2022-08-21T14:08:53;28.60;86.50
19880;DHT22;10102;50.828;4.416;2022-08-21T14:11:20;27.90;96.50
19880;DHT22;10102;50.828;4.416;2022-08-21T14:13:56;28.00;89.10
19880;DHT22;10102;50.828;4.416;2022-08-21T14:16:25;28.10;88.90
19880;DHT22;10102;50.828;4.416;2022-08-21T14:21:34;27.50;90.30
19880;DHT22;10102;50.828;4.416;2022-08-21T14:27:04;27.30;91.20
19880;DHT22;10102;50.828;4.416;2022-08-21T14:29:37;27.30;91.70
19880;DHT22;10102;50.828;4.416;2022-08-21T14:32:17;27.00;91.80
19880;DHT22;10102;50.828;4.416;2022-08-21T14:34:44;27.20;92.00
19880;DHT22;10102;50.828;4.416;2022-08-21T14:37:10;27.40;91.70
19880;DHT22;10102;50.828;4.416;2022-08-21T14:39:36;27.70;91.50
19880;DHT22;10102;50.828;4.416;2022-08-21T14:42:02;28.00;91.00
19880;DHT22;10102;50.828;4.416;2022-08-21T14:44:28;29.00;90.40
19880;DHT22;10102;50.828;4.416;2022-08-21T14:46:55;31.60;83.40
19880;DHT22;10102;50.828;4.416;2022-08-21T14:49:21;33.50;79.10
19880;DHT22;10102;50.828;4.416;2022-08-21T14:51:47;33.00;78.10
19880;DHT22;10102;50.828;4.416;2022-08-21T14:54:12;32.40;80.00
19880;DHT22;10102;50.828;4.416;2022-08-21T14:56:38;31.70;81.10
19880;DHT22;10102;50.828;4.416;2022-08-21T14:59:06;31.00;81.90
19880;DHT22;10102;50.828;4.416;2022-08-21T15:01:35;30.30;84.20
19880;DHT22;10102;50.828;4.416;2022-08-21T15:04:01;29.70;86.20
19880;DHT22;10102;50.828;4.416;2022-08-21T15:06:27;29.50;87.40
19880;DHT22;10102;50.828;4.416;2022-08-21T15:08:53;29.00;88.30
19880;DHT22;10102;50.828;4.416;2022-08-21T15:11:20;28.70;89.60
19880;DHT22;10102;50.828;4.416;2022-08-21T15:13:55;28.40;90.20
19880;DHT22;10102;50.828;4.416;2022-08-21T15:16:21;28.20;90.40
19880;DHT22;10102;50.828;4.416;2022-08-21T15:18:46;28.60;90.70
19880;DHT22;10102;50.828;4.416;2022-08-21T15:21:12;27.60;90.80
19880;DHT22;10102;50.828;4.416;2022-08-21T15:23:38;27.50;91.30
19880;DHT22;10102;50.828;4.416;2022-08-21T15:26:04;29.90;92.40
19880;DHT22;10102;50.828;4.416;2022-08-21T15:28:30;27.40;91.70
19880;DHT22;10102;50.828;4.416;2022-08-21T15:30:55;27.50;91.70
19880;DHT22;10102;50.828;4.416;2022-08-21T15:33:21;27.50;99.00
19880;DHT22;10102;50.828;4.416;2022-08-21T15:35:47;27.40;91.90
19880;DHT22;10102;50.828;4.416;2022-08-21T15:38:14;27.30;92.00
19880;DHT22;10102;50.828;4.416;2022-08-21T15:40:41;27.10;92.20
19880;DHT22;10102;50.828;4.416;2022-08-21T15:43:15;26.90;92.50
19880;DHT22;10102;50.828;4.416;2022-08-21T15:45:43;26.90;99.90
19880;DHT22;10102;50.828;4.416;2022-08-21T15:48:09;26.90;92.60
19880;DHT22;10102;50.828;4.416;2022-08-21T15:50:35;26.90;92.70
19880;DHT22;10102;50.828;4.416;2022-08-21T15:53:01;26.80;92.60
19880;DHT22;10102;50.828;4.416;2022-08-21T15:55:27;26.50;94.00
19880;DHT22;10102;50.828;4.416;2022-08-21T15:57:52;26.50;93.60
19880;DHT22;10102;50.828;4.416;2022-08-21T16:00:21;26.40;93.40
19880;DHT22;10102;50.828;4.416;2022-08-21T16:02:52;26.50;93.80
19880;DHT22;10102;50.828;4.416;2022-08-21T16:05:19;26.50;93.70
19880;DHT22;10102;50.828;4.416;2022-08-21T16:07:47;26.30;93.70
19880;DHT22;10102;50.828;4.416;2022-08-21T16:10:16;25.90;94.40
19880;DHT22;10102;50.828;4.416;2022-08-21T16:12:45;25.90;94.70
19880;DHT22;10102;50.828;4.416;2022-08-21T16:15:14;25.90;95.10
19880;DHT22;10102;50.828;4.416;2022-08-21T16:17:45;25.90;95.10
19880;DHT22;10102;50.828;4.416;2022-08-21T16:20:17;26.10;94.90
19880;DHT22;10102;50.828;4.416;2022-08-21T16:22:43;26.20;94.20
19880;DHT22;10102;50.828;4.416;2022-08-21T16:25:09;26.20;93.60
19880;DHT22;10102;50.828;4.416;2022-08-21T16:27:35;26.10;94.00
19880;DHT22;10102;50.828;4.416;2022-08-21T16:30:04;26.20;94.30
19880;DHT22;10102;50.828;4.416;2022-08-21T16:32:30;26.10;99.90
19880;DHT22;10102;50.828;4.416;2022-08-21T16:34:55;26.10;94.80
19880;DHT22;10102;50.828;4.416;2022-08-21T16:37:21;25.90;94.80
19880;DHT22;10102;50.828;4.416;2022-08-21T16:39:48;25.80;95.50
19880;DHT22;10102;50.828;4.416;2022-08-21T16:42:18;25.90;95.60
19880;DHT22;10102;50.828;4.416;2022-08-21T16:44:45;25.90;95.50
19880;DHT22;10102;50.828;4.416;2022-08-21T16:47:11;26.00;95.40
19880;DHT22;10102;50.828;4.416;2022-08-21T16:49:37;25.80;96.00
19880;DHT22;10102;50.828;4.416;2022-08-21T16:52:03;25.90;95.10
19880;DHT22;10102;50.828;4.416;2022-08-21T16:54:30;26.00;94.70
19880;DHT22;10102;50.828;4.416;2022-08-21T16:56:56;26.10;94.90
19880;DHT22;10102;50.828;4.416;2022-08-21T16:59:23;26.20;94.80
19880;DHT22;10102;50.828;4.416;2022-08-21T17:01:48;26.30;99.90
19880;DHT22;10102;50.828;4.416;2022-08-21T17:04:14;26.10;99.90
19880;DHT22;10102;50.828;4.416;2022-08-21T17:06:40;26.00;95.10
19880;DHT22;10102;50.828;4.416;2022-08-21T17:09:06;26.20;95.20
19880;DHT22;10102;50.828;4.416;2022-08-21T17:11:40;25.90;99.90
19880;DHT22;10102;50.828;4.416;2022-08-21T17:14:12;26.00;99.90
19880;DHT22;10102;50.828;4.416;2022-08-21T17:16:41;25.90;95.70
19880;DHT22;10102;50.828;4.416;2022-08-21T17:19:08;25.90;95.10
19880;DHT22;10102;50.828;4.416;2022-08-21T17:21:34;25.90;95.30
19880;DHT22;10102;50.828;4.416;2022-08-21T17:24:00;25.70;95.80
19880;DHT22;10102;50.828;4.416;2022-08-21T17:26:26;25.10;95.80
19880;DHT22;10102;50.828;4.416;2022-08-21T17:28:51;25.40;96.20
19880;DHT22;10102;50.828;4.416;2022-08-21T17:31:17;25.20;96.50